sensor_id;sensor_type;location;lat;lon;timestamp;pressure;altitude;pressure_sealevel;temperature;humidity
55187;BME280;55457;52.002;5.464;2022-07-04T00:02:12;101840.50;;;24.43;48.26
55187;BME280;55457;52.002;5.464;2022-07-04T00:04:37;101834.19;;;24.43;48.17
55187;BME280;55457;52.002;5.464;2022-07-04T00:07:03;101827.91;;;24.42;48.38
55187;BME280;55457;52.002;5.464;2022-07-04T00:09:28;101828.75;;;24.43;48.38
55187;BME280;55457;52.002;5.464;2022-07-04T00:11:54;101831.47;;;24.43;48.24
55187;BME280;55457;52.002;5.464;2022-07-04T00:14:19;101827.09;;;24.42;48.06
55187;BME280;55457;52.002;5.464;2022-07-04T00:16:44;101822.47;;;24.42;48.52
55187;BME280;55457;52.002;5.464;2022-07-04T00:19:10;101826.88;;;24.43;48.32
55187;BME280;55457;52.002;5.464;2022-07-04T00:21:35;101821.66;;;24.42;48.40
55187;BME280;55457;52.002;5.464;2022-07-04T00:24:00;101821.66;;;24.42;48.52
55187;BME280;55457;52.002;5.464;2022-07-04T00:26:26;101815.13;;;24.43;48.51
55187;BME280;55457;52.002;5.464;2022-07-04T00:28:51;101820.81;;;24.41;48.21
55187;BME280;55457;52.002;5.464;2022-07-04T00:31:16;101814.56;;;24.41;48.30
55187;BME280;55457;52.002;5.464;2022-07-04T00:33:42;101816.19;;;24.42;48.34
55187;BME280;55457;52.002;5.464;2022-07-04T00:36:07;101818.34;;;24.40;48.38
55187;BME280;55457;52.002;5.464;2022-07-04T00:38:32;101815.38;;;24.41;48.26
55187;BME280;55457;52.002;5.464;2022-07-04T00:40:58;101817.28;;;24.41;48.33
55187;BME280;55457;52.002;5.464;2022-07-04T00:43:25;101823.53;;;24.41;48.29
55187;BME280;55457;52.002;5.464;2022-07-04T00:45:51;101822.72;;;24.41;48.25
55187;BME280;55457;52.002;5.464;2022-07-04T00:48:16;101813.72;;;24.40;48.28
55187;BME280;55457;52.002;5.464;2022-07-04T00:50:44;101808.28;;;24.40;48.47
55187;BME280;55457;52.002;5.464;2022-07-04T00:53:11;101804.72;;;24.40;48.50
55187;BME280;55457;52.002;5.464;2022-07-04T00:55:37;101807.47;;;24.40;48.53
55187;BME280;55457;52.002;5.464;2022-07-04T00:58:02;101811.25;;;24.39;48.80
55187;BME280;55457;52.002;5.464;2022-07-04T01:00:28;101805.81;;;24.39;48.37
55187;BME280;55457;52.002;5.464;2022-07-04T01:02:54;101803.91;;;24.39;48.54
55187;BME280;55457;52.002;5.464;2022-07-04T01:05:19;101804.72;;;24.40;48.71
55187;BME280;55457;52.002;5.464;2022-07-04T01:07:45;101802.81;;;24.40;48.43
55187;BME280;55457;52.002;5.464;2022-07-04T01:10:10;101803.09;;;24.39;48.48
55187;BME280;55457;52.002;5.464;2022-07-04T01:12:36;101801.19;;;24.39;48.42
55187;BME280;55457;52.002;5.464;2022-07-04T01:15:02;101806.63;;;24.39;48.50
55187;BME280;55457;52.002;5.464;2022-07-04T01:17:28;101800.38;;;24.39;48.56
55187;BME280;55457;52.002;5.464;2022-07-04T01:19:53;101801.19;;;24.39;48.60
55187;BME280;55457;52.002;5.464;2022-07-04T01:22:19;101794.91;;;24.39;48.78
55187;BME280;55457;52.002;5.464;2022-07-04T01:24:44;101796.56;;;24.40;48.51
55187;BME280;55457;52.002;5.464;2022-07-04T01:27:10;101794.91;;;24.39;48.51
55187;BME280;55457;52.002;5.464;2022-07-04T01:29:35;101788.88;;;24.37;48.61
55187;BME280;55457;52.002;5.464;2022-07-04T01:32:08;101786.75;;;24.39;48.77
55187;BME280;55457;52.002;5.464;2022-07-04T01:34:34;101784.00;;;24.39;48.75
55187;BME280;55457;52.002;5.464;2022-07-04T01:37:00;101784.00;;;24.39;48.78
55187;BME280;55457;52.002;5.464;2022-07-04T01:39:29;101780.69;;;24.37;48.96
55187;BME280;55457;52.002;5.464;2022-07-04T01:41:55;101788.63;;;24.38;48.69
55187;BME280;55457;52.002;5.464;2022-07-04T01:44:21;101782.34;;;24.38;48.97
55187;BME280;55457;52.002;5.464;2022-07-04T01:46:46;101787.78;;;24.38;48.92
55187;BME280;55457;52.002;5.464;2022-07-04T01:49:12;101782.34;;;24.38;48.90
55187;BME280;55457;52.002;5.464;2022-07-04T01:51:48;101780.69;;;24.37;48.98
55187;BME280;55457;52.002;5.464;2022-07-04T01:54:14;101786.97;;;24.37;48.70
55187;BME280;55457;52.002;5.464;2022-07-04T01:56:40;101776.06;;;24.37;48.71
55187;BME280;55457;52.002;5.464;2022-07-04T01:59:06;101782.34;;;24.38;49.02
55187;BME280;55457;52.002;5.464;2022-07-04T02:01:31;101779.06;;;24.36;48.76
55187;BME280;55457;52.002;5.464;2022-07-04T02:04:01;101786.13;;;24.37;48.77
55187;BME280;55457;52.002;5.464;2022-07-04T02:06:28;101786.13;;;24.37;48.91
55187;BME280;55457;52.002;5.464;2022-07-04T02:08:54;101779.06;;;24.36;48.79
55187;BME280;55457;52.002;5.464;2022-07-04T02:11:38;101778.22;;;24.35;48.96
55187;BME280;55457;52.002;5.464;2022-07-04T02:14:22;101779.06;;;24.36;48.85
55187;BME280;55457;52.002;5.464;2022-07-04T02:16:47;101775.25;;;24.37;48.92
55187;BME280;55457;52.002;5.464;2022-07-04T02:19:13;101783.41;;;24.37;48.96
55187;BME280;55457;52.002;5.464;2022-07-04T02:21:38;101779.06;;;24.36;48.98
55187;BME280;55457;52.002;5.464;2022-07-04T02:24:04;101769.78;;;24.37;48.97
55187;BME280;55457;52.002;5.464;2022-07-04T02:26:29;101770.88;;;24.36;48.92
55187;BME280;55457;52.002;5.464;2022-07-04T02:28:55;101771.69;;;24.36;49.09
55187;BME280;55457;52.002;5.464;2022-07-04T02:31:22;101777.97;;;24.37;49.09
55187;BME280;55457;52.002;5.464;2022-07-04T02:33:48;101777.38;;;24.35;49.15
55187;BME280;55457;52.002;5.464;2022-07-04T02:36:14;101773.59;;;24.36;48.90
55187;BME280;55457;52.002;5.464;2022-07-04T02:38:39;101779.88;;;24.36;48.92
55187;BME280;55457;52.002;5.464;2022-07-04T02:41:04;101773.59;;;24.36;49.09
55187;BME280;55457;52.002;5.464;2022-07-04T02:43:30;101772.53;;;24.37;49.01
55187;BME280;55457;52.002;5.464;2022-07-04T02:45:55;101775.50;;;24.35;48.86
55187;BME280;55457;52.002;5.464;2022-07-04T02:48:20;101775.25;;;24.37;49.03
55187;BME280;55457;52.002;5.464;2022-07-04T02:50:46;101769.19;;;24.35;49.09
55187;BME280;55457;52.002;5.464;2022-07-04T02:53:11;101768.16;;;24.36;48.88
55187;BME280;55457;52.002;5.464;2022-07-04T02:55:36;101767.34;;;24.35;49.16
55187;BME280;55457;52.002;5.464;2022-07-04T02:58:02;101765.44;;;24.36;48.96
55187;BME280;55457;52.002;5.464;2022-07-04T03:00:27;101764.84;;;24.34;48.92
55187;BME280;55457;52.002;5.464;2022-07-04T03:02:54;101772.78;;;24.35;48.98
55187;BME280;55457;52.002;5.464;2022-07-04T03:05:19;101777.38;;;24.35;48.85
55187;BME280;55457;52.002;5.464;2022-07-04T03:07:45;101780.09;;;24.35;48.78
55187;BME280;55457;52.002;5.464;2022-07-04T03:10:10;101776.56;;;24.34;48.89
55187;BME280;55457;52.002;5.464;2022-07-04T03:12:36;101778.44;;;24.34;49.01
55187;BME280;55457;52.002;5.464;2022-07-04T03:15:01;101776.56;;;24.34;49.19
55187;BME280;55457;52.002;5.464;2022-07-04T03:17:27;101781.19;;;24.34;49.10
55187;BME280;55457;52.002;5.464;2022-07-04T03:19:54;101778.44;;;24.34;48.93
55187;BME280;55457;52.002;5.464;2022-07-04T03:22:19;101782.25;;;24.33;49.12
55187;BME280;55457;52.002;5.464;2022-07-04T03:24:45;101786.63;;;24.34;49.06
55187;BME280;55457;52.002;5.464;2022-07-04T03:27:10;101792.06;;;24.34;49.18
55187;BME280;55457;52.002;5.464;2022-07-04T03:29:35;101787.44;;;24.34;49.18
55187;BME280;55457;52.002;5.464;2022-07-04T03:32:01;101789.34;;;24.34;48.99
55187;BME280;55457;52.002;5.464;2022-07-04T03:34:26;101792.06;;;24.34;49.12
55187;BME280;55457;52.002;5.464;2022-07-04T03:36:52;101792.28;;;24.32;49.10
55187;BME280;55457;52.002;5.464;2022-07-04T03:39:17;101793.72;;;24.35;49.18
55187;BME280;55457;52.002;5.464;2022-07-04T03:41:42;101788.53;;;24.33;48.71
55187;BME280;55457;52.002;5.464;2022-07-04T03:44:07;101792.06;;;24.34;49.33
55187;BME280;55457;52.002;5.464;2022-07-04T03:46:33;101792.91;;;24.34;49.31
55187;BME280;55457;52.002;5.464;2022-07-04T03:48:58;101801.06;;;24.34;49.07
55187;BME280;55457;52.002;5.464;2022-07-04T03:51:24;101797.53;;;24.34;49.07
55187;BME280;55457;52.002;5.464;2022-07-04T03:53:50;101798.59;;;24.33;49.27
55187;BME280;55457;52.002;5.464;2022-07-04T03:56:15;101796.69;;;24.33;49.05
55187;BME280;55457;52.002;5.464;2022-07-04T03:58:41;101800.47;;;24.32;49.24
55187;BME280;55457;52.002;5.464;2022-07-04T04:01:08;101796.69;;;24.33;49.37
55187;BME280;55457;52.002;5.464;2022-07-04T04:03:33;101801.31;;;24.33;48.99
55187;BME280;55457;52.002;5.464;2022-07-04T04:06:17;101802.97;;;24.34;48.94
55187;BME280;55457;52.002;5.464;2022-07-04T04:08:43;101808.63;;;24.32;49.10
55187;BME280;55457;52.002;5.464;2022-07-04T04:11:08;101806.78;;;24.33;49.38
55187;BME280;55457;52.002;5.464;2022-07-04T04:13:33;101806.78;;;24.33;49.36
55187;BME280;55457;52.002;5.464;2022-07-04T04:15:59;101816.81;;;24.32;49.12
55187;BME280;55457;52.002;5.464;2022-07-04T04:18:24;101814.09;;;24.32;49.15
55187;BME280;55457;52.002;5.464;2022-07-04T04:20:49;101816.81;;;24.32;49.25
55187;BME280;55457;52.002;5.464;2022-07-04T04:23:15;101811.38;;;24.32;49.12
55187;BME280;55457;52.002;5.464;2022-07-04T04:25:40;101816.81;;;24.32;49.40
55187;BME280;55457;52.002;5.464;2022-07-04T04:28:06;101816.81;;;24.32;49.18
55187;BME280;55457;52.002;5.464;2022-07-04T04:30:31;101821.44;;;24.32;49.17
55187;BME280;55457;52.002;5.464;2022-07-04T04:32:57;101814.34;;;24.31;49.02
55187;BME280;55457;52.002;5.464;2022-07-04T04:35:22;101813.28;;;24.32;49.14
55187;BME280;55457;52.002;5.464;2022-07-04T04:37:47;101814.94;;;24.33;49.05
55187;BME280;55457;52.002;5.464;2022-07-04T04:40:13;101817.66;;;24.33;49.23
55187;BME280;55457;52.002;5.464;2022-07-04T04:42:38;101821.44;;;24.32;49.01
55187;BME280;55457;52.002;5.464;2022-07-04T04:45:04;101815.16;;;24.31;49.02
55187;BME280;55457;52.002;5.464;2022-07-04T04:47:30;101820.63;;;24.31;49.22
55187;BME280;55457;52.002;5.464;2022-07-04T04:49:55;101816.00;;;24.32;49.28
55187;BME280;55457;52.002;5.464;2022-07-04T04:52:20;101825.84;;;24.33;49.30
55187;BME280;55457;52.002;5.464;2022-07-04T04:54:46;101826.88;;;24.32;49.34
55187;BME280;55457;52.002;5.464;2022-07-04T04:57:11;101825.84;;;24.33;49.21
55187;BME280;55457;52.002;5.464;2022-07-04T04:59:36;101829.63;;;24.32;49.47
55187;BME280;55457;52.002;5.464;2022-07-04T05:02:02;101826.88;;;24.32;49.27
55187;BME280;55457;52.002;5.464;2022-07-04T05:04:28;101824.16;;;24.32;49.32
55187;BME280;55457;52.002;5.464;2022-07-04T05:06:53;101825.00;;;24.32;49.31
55187;BME280;55457;52.002;5.464;2022-07-04T05:09:19;101827.50;;;24.34;49.27
55187;BME280;55457;52.002;5.464;2022-07-04T05:11:46;101826.66;;;24.33;49.14
55187;BME280;55457;52.002;5.464;2022-07-04T05:14:12;101834.00;;;24.33;49.13
55187;BME280;55457;52.002;5.464;2022-07-04T05:16:37;101833.16;;;24.32;49.04
55187;BME280;55457;52.002;5.464;2022-07-04T05:19:02;101835.66;;;24.34;49.12
55187;BME280;55457;52.002;5.464;2022-07-04T05:21:28;101835.88;;;24.32;49.32
55187;BME280;55457;52.002;5.464;2022-07-04T05:23:54;101831.28;;;24.33;49.31
55187;BME280;55457;52.002;5.464;2022-07-04T05:26:20;101839.47;;;24.33;49.34
55187;BME280;55457;52.002;5.464;2022-07-04T05:28:45;101840.28;;;24.33;49.34
55187;BME280;55457;52.002;5.464;2022-07-04T05:32:01;101834.84;;;24.33;49.25
55187;BME280;55457;52.002;5.464;2022-07-04T05:34:26;101842.19;;;24.33;49.25
55187;BME280;55457;52.002;5.464;2022-07-04T05:36:51;101834.84;;;24.33;49.08
55187;BME280;55457;52.002;5.464;2022-07-04T05:39:17;101845.72;;;24.33;49.26
55187;BME280;55457;52.002;5.464;2022-07-04T05:41:42;101843.84;;;24.34;49.32
55187;BME280;55457;52.002;5.464;2022-07-04T05:44:08;101846.56;;;24.34;49.45
55187;BME280;55457;52.002;5.464;2022-07-04T05:46:33;101843.84;;;24.34;49.27
55187;BME280;55457;52.002;5.464;2022-07-04T05:48:58;101842.75;;;24.35;49.43
55187;BME280;55457;52.002;5.464;2022-07-04T05:51:24;101835.66;;;24.34;49.25
55187;BME280;55457;52.002;5.464;2022-07-04T05:53:49;101852.00;;;24.34;49.39
55187;BME280;55457;52.002;5.464;2022-07-04T05:56:15;101855.34;;;24.36;49.49
55187;BME280;55457;52.002;5.464;2022-07-04T05:58:40;101854.50;;;24.35;49.55
55187;BME280;55457;52.002;5.464;2022-07-04T06:01:06;101858.28;;;24.34;49.66
55187;BME280;55457;52.002;5.464;2022-07-04T06:03:32;101871.69;;;24.36;49.48
55187;BME280;55457;52.002;5.464;2022-07-04T06:05:57;101859.09;;;24.35;49.42
55187;BME280;55457;52.002;5.464;2022-07-04T06:08:23;101859.09;;;24.35;49.42
55187;BME280;55457;52.002;5.464;2022-07-04T06:10:49;101852.00;;;24.34;49.53
55187;BME280;55457;52.002;5.464;2022-07-04T06:13:14;101841.09;;;24.34;49.66
55187;BME280;55457;52.002;5.464;2022-07-04T06:15:39;101847.38;;;24.34;49.13
55187;BME280;55457;52.002;5.464;2022-07-04T06:18:05;101847.38;;;24.34;49.52
55187;BME280;55457;52.002;5.464;2022-07-04T06:20:30;101859.09;;;24.35;49.49
55187;BME280;55457;52.002;5.464;2022-07-04T06:22:56;101869.19;;;24.34;49.52
55187;BME280;55457;52.002;5.464;2022-07-04T06:25:21;101856.38;;;24.35;49.75
55187;BME280;55457;52.002;5.464;2022-07-04T06:27:49;101855.34;;;24.36;50.79
55187;BME280;55457;52.002;5.464;2022-07-04T06:30:15;101850.69;;;24.36;50.58
55187;BME280;55457;52.002;5.464;2022-07-04T06:32:50;101843.13;;;24.38;50.18
55187;BME280;55457;52.002;5.464;2022-07-04T06:35:24;101827.59;;;24.39;50.17
55187;BME280;55457;52.002;5.464;2022-07-04T06:38:09;101833.88;;;24.39;50.14
55187;BME280;55457;52.002;5.464;2022-07-04T06:40:36;101833.06;;;24.39;50.24
55187;BME280;55457;52.002;5.464;2022-07-04T06:43:02;101831.38;;;24.38;50.34
55187;BME280;55457;52.002;5.464;2022-07-04T06:45:28;101830.34;;;24.39;50.60
55187;BME280;55457;52.002;5.464;2022-07-04T06:47:54;101836.59;;;24.39;50.36
55187;BME280;55457;52.002;5.464;2022-07-04T06:50:19;101838.25;;;24.40;50.14
55187;BME280;55457;52.002;5.464;2022-07-04T06:52:45;101837.44;;;24.40;50.08
55187;BME280;55457;52.002;5.464;2022-07-04T06:55:10;101838.50;;;24.39;50.28
55187;BME280;55457;52.002;5.464;2022-07-04T06:57:36;101834.69;;;24.40;50.07
55187;BME280;55457;52.002;5.464;2022-07-04T07:00:02;101832.22;;;24.38;50.29
55187;BME280;55457;52.002;5.464;2022-07-04T07:02:28;101834.69;;;24.40;50.37
55187;BME280;55457;52.002;5.464;2022-07-04T07:04:55;101838.25;;;24.40;49.99
55187;BME280;55457;52.002;5.464;2022-07-04T07:07:20;101839.06;;;24.41;49.90
55187;BME280;55457;52.002;5.464;2022-07-04T07:09:46;101829.25;;;24.40;50.28
55187;BME280;55457;52.002;5.464;2022-07-04T07:12:11;101835.53;;;24.40;50.40
55187;BME280;55457;52.002;5.464;2022-07-04T07:14:36;101838.81;;;24.42;50.01
55187;BME280;55457;52.002;5.464;2022-07-04T07:17:02;101833.38;;;24.42;50.27
55187;BME280;55457;52.002;5.464;2022-07-04T07:19:28;101839.63;;;24.43;50.08
55187;BME280;55457;52.002;5.464;2022-07-04T07:21:53;101842.63;;;24.41;50.16
55187;BME280;55457;52.002;5.464;2022-07-04T07:24:18;101832.53;;;24.42;50.14
55187;BME280;55457;52.002;5.464;2022-07-04T07:26:44;101835.25;;;24.42;50.43
55187;BME280;55457;52.002;5.464;2022-07-04T07:29:09;101836.09;;;24.42;50.66
55187;BME280;55457;52.002;5.464;2022-07-04T07:31:34;101826.28;;;24.41;50.86
55187;BME280;55457;52.002;5.464;2022-07-04T07:34:00;101840.50;;;24.43;50.79
55187;BME280;55457;52.002;5.464;2022-07-04T07:36:25;101849.50;;;24.44;51.25
55187;BME280;55457;52.002;5.464;2022-07-04T07:38:50;101852.69;;;24.41;51.61
55187;BME280;55457;52.002;5.464;2022-07-04T07:41:17;101846.06;;;24.37;51.42
55187;BME280;55457;52.002;5.464;2022-07-04T07:43:43;101857.47;;;24.34;51.80
55187;BME280;55457;52.002;5.464;2022-07-04T07:46:08;101854.13;;;24.32;51.67
55187;BME280;55457;52.002;5.464;2022-07-04T07:48:34;101848.13;;;24.30;51.62
55187;BME280;55457;52.002;5.464;2022-07-04T07:50:59;101839.13;;;24.29;51.62
55187;BME280;55457;52.002;5.464;2022-07-04T07:53:25;101843.16;;;24.27;51.99
55187;BME280;55457;52.002;5.464;2022-07-04T07:55:50;101853.47;;;24.25;52.14
55187;BME280;55457;52.002;5.464;2022-07-04T07:58:15;101851.81;;;24.24;52.06
55187;BME280;55457;52.002;5.464;2022-07-04T08:00:41;101851.22;;;24.21;51.64
55187;BME280;55457;52.002;5.464;2022-07-04T08:03:06;101846.84;;;24.20;52.03
55187;BME280;55457;52.002;5.464;2022-07-04T08:05:50;101856.34;;;24.18;52.23
55187;BME280;55457;52.002;5.464;2022-07-04T08:08:16;101861.47;;;24.14;51.92
55187;BME280;55457;52.002;5.464;2022-07-04T08:10:41;101857.09;;;24.13;52.10
55187;BME280;55457;52.002;5.464;2022-07-04T08:13:06;101854.63;;;24.12;51.87
55187;BME280;55457;52.002;5.464;2022-07-04T08:15:32;101856.50;;;24.11;52.21
55187;BME280;55457;52.002;5.464;2022-07-04T08:17:58;101856.50;;;24.11;52.18
55187;BME280;55457;52.002;5.464;2022-07-04T08:20:23;101866.91;;;24.14;52.20
55187;BME280;55457;52.002;5.464;2022-07-04T08:22:49;101869.63;;;24.14;51.88
55187;BME280;55457;52.002;5.464;2022-07-04T08:25:14;101863.84;;;24.11;51.98
55187;BME280;55457;52.002;5.464;2022-07-04T08:27:41;101877.69;;;24.09;51.99
55187;BME280;55457;52.002;5.464;2022-07-04T08:30:07;101870.00;;;24.06;51.98
55187;BME280;55457;52.002;5.464;2022-07-04T08:32:33;101878.69;;;24.03;51.90
55187;BME280;55457;52.002;5.464;2022-07-04T08:34:58;101876.22;;;24.02;51.86
55187;BME280;55457;52.002;5.464;2022-07-04T08:37:24;101875.34;;;24.01;51.81
55187;BME280;55457;52.002;5.464;2022-07-04T08:39:49;101873.97;;;23.99;52.09
55187;BME280;55457;52.002;5.464;2022-07-04T08:42:19;101880.47;;;23.98;52.14
55187;BME280;55457;52.002;5.464;2022-07-04T08:44:50;101877.97;;;23.96;52.18
55187;BME280;55457;52.002;5.464;2022-07-04T08:47:25;101873.88;;;23.93;52.03
55187;BME280;55457;52.002;5.464;2022-07-04T08:50:06;101880.47;;;23.98;51.86
55187;BME280;55457;52.002;5.464;2022-07-04T08:52:37;101878.69;;;24.03;51.49
55187;BME280;55457;52.002;5.464;2022-07-04T08:55:05;101878.44;;;24.05;51.33
55187;BME280;55457;52.002;5.464;2022-07-04T08:57:51;101882.78;;;24.06;50.62
55187;BME280;55457;52.002;5.464;2022-07-04T09:00:35;101876.06;;;24.08;50.82
55187;BME280;55457;52.002;5.464;2022-07-04T09:03:02;101880.44;;;24.09;50.87
55187;BME280;55457;52.002;5.464;2022-07-04T09:05:28;101882.06;;;24.10;50.55
55187;BME280;55457;52.002;5.464;2022-07-04T09:07:54;101878.97;;;24.18;50.15
55187;BME280;55457;52.002;5.464;2022-07-04T09:10:21;101875.41;;;24.18;50.03
55187;BME280;55457;52.002;5.464;2022-07-04T09:12:47;101876.72;;;24.15;50.17
55187;BME280;55457;52.002;5.464;2022-07-04T09:15:12;101872.91;;;24.16;50.87
55187;BME280;55457;52.002;5.464;2022-07-04T09:17:38;101871.28;;;24.15;50.24
55187;BME280;55457;52.002;5.464;2022-07-04T09:22:39;101875.06;;;24.14;50.37
55187;BME280;55457;52.002;5.464;2022-07-04T09:25:06;101872.59;;;24.13;50.26
55187;BME280;55457;52.002;5.464;2022-07-04T09:27:33;101876.63;;;24.10;50.47
55187;BME280;55457;52.002;5.464;2022-07-04T09:29:59;101878.88;;;24.13;50.36
55187;BME280;55457;52.002;5.464;2022-07-04T09:32:36;101871.53;;;24.14;50.06
55187;BME280;55457;52.002;5.464;2022-07-04T09:35:04;101884.31;;;24.13;50.25
55187;BME280;55457;52.002;5.464;2022-07-04T09:37:42;101882.41;;;24.14;50.36
55187;BME280;55457;52.002;5.464;2022-07-04T09:40:21;101880.53;;;24.14;51.59
55187;BME280;55457;52.002;5.464;2022-07-04T09:42:47;101887.34;;;24.17;51.55
55187;BME280;55457;52.002;5.464;2022-07-04T09:45:12;101882.78;;;24.17;51.41
55187;BME280;55457;52.002;5.464;2022-07-04T09:47:41;101886.31;;;24.18;51.64
55187;BME280;55457;52.002;5.464;2022-07-04T09:50:13;101883.34;;;24.19;51.79
55187;BME280;55457;52.002;5.464;2022-07-04T09:52:50;101886.63;;;24.21;51.78
55187;BME280;55457;52.002;5.464;2022-07-04T09:55:38;101886.16;;;24.25;51.40
55187;BME280;55457;52.002;5.464;2022-07-04T09:58:05;101880.47;;;24.26;51.48
55187;BME280;55457;52.002;5.464;2022-07-04T10:00:34;101884.00;;;24.27;51.90
55187;BME280;55457;52.002;5.464;2022-07-04T10:05:41;101883.53;;;24.30;51.01
55187;BME280;55457;52.002;5.464;2022-07-04T10:08:06;101879.59;;;24.37;50.84
55187;BME280;55457;52.002;5.464;2022-07-04T10:10:33;101872.72;;;24.35;50.75
55187;BME280;55457;52.002;5.464;2022-07-04T10:15:30;101876.44;;;24.29;49.46
55187;BME280;55457;52.002;5.464;2022-07-04T10:17:55;101873.09;;;24.27;49.64
55187;BME280;55457;52.002;5.464;2022-07-04T10:20:21;101871.47;;;24.26;50.09
55187;BME280;55457;52.002;5.464;2022-07-04T10:22:47;101863.28;;;24.26;50.13
55187;BME280;55457;52.002;5.464;2022-07-04T10:25:12;101872.28;;;24.26;50.16
55187;BME280;55457;52.002;5.464;2022-07-04T10:27:38;101868.25;;;24.29;49.81
55187;BME280;55457;52.002;5.464;2022-07-04T10:30:06;101871.81;;;24.29;49.93
55187;BME280;55457;52.002;5.464;2022-07-04T10:32:33;101871.56;;;24.31;49.88
55187;BME280;55457;52.002;5.464;2022-07-04T10:34:59;101871.56;;;24.31;49.79
55187;BME280;55457;52.002;5.464;2022-07-04T10:37:24;101878.09;;;24.30;49.67
55187;BME280;55457;52.002;5.464;2022-07-04T10:39:51;101868.00;;;24.30;49.65
55187;BME280;55457;52.002;5.464;2022-07-04T10:42:26;101870.47;;;24.32;49.73
55187;BME280;55457;52.002;5.464;2022-07-04T10:45:00;101864.56;;;24.35;49.64
55187;BME280;55457;52.002;5.464;2022-07-04T10:47:26;101880.19;;;24.39;49.33
55187;BME280;55457;52.002;5.464;2022-07-04T10:49:55;101868.06;;;24.47;49.33
55187;BME280;55457;52.002;5.464;2022-07-04T10:52:20;101867.06;;;24.53;48.98
55187;BME280;55457;52.002;5.464;2022-07-04T10:54:46;101861.69;;;24.58;48.85
55187;BME280;55457;52.002;5.464;2022-07-04T10:57:18;101866.56;;;24.56;48.93
55187;BME280;55457;52.002;5.464;2022-07-04T11:02:32;101874.19;;;24.54;49.14
55187;BME280;55457;52.002;5.464;2022-07-04T11:05:04;101875.84;;;24.55;48.74
55187;BME280;55457;52.002;5.464;2022-07-04T11:18:02;101849.06;;;24.69;48.02
55187;BME280;55457;52.002;5.464;2022-07-04T11:20:30;101854.50;;;24.69;48.30
55187;BME280;55457;52.002;5.464;2022-07-04T11:23:08;101856.75;;;24.72;48.34
55187;BME280;55457;52.002;5.464;2022-07-04T11:25:34;101858.16;;;24.75;48.08
55187;BME280;55457;52.002;5.464;2022-07-04T11:28:25;101856.84;;;24.77;48.06
55187;BME280;55457;52.002;5.464;2022-07-04T11:30:58;101856.91;;;24.82;47.72
55187;BME280;55457;52.002;5.464;2022-07-04T11:33:28;101857.56;;;24.89;48.07
55187;BME280;55457;52.002;5.464;2022-07-04T11:38:49;101848.22;;;25.02;47.57
55187;BME280;55457;52.002;5.464;2022-07-04T11:41:16;101848.69;;;24.99;47.93
55187;BME280;55457;52.002;5.464;2022-07-04T11:44:05;101842.44;;;24.98;47.52
55187;BME280;55457;52.002;5.464;2022-07-04T11:46:49;101850.03;;;24.96;47.33
55187;BME280;55457;52.002;5.464;2022-07-04T11:49:14;101833.97;;;25.00;46.94
55187;BME280;55457;52.002;5.464;2022-07-04T11:51:44;101838.06;;;24.97;47.17
55187;BME280;55457;52.002;5.464;2022-07-04T11:54:11;101844.59;;;24.96;47.11
55187;BME280;55457;52.002;5.464;2022-07-04T11:56:36;101844.91;;;25.00;46.93
55187;BME280;55457;52.002;5.464;2022-07-04T11:59:13;101838.50;;;25.06;46.91
55187;BME280;55457;52.002;5.464;2022-07-04T12:01:40;101833.94;;;25.12;46.93
55187;BME280;55457;52.002;5.464;2022-07-04T12:04:19;101831.50;;;25.15;46.85
55187;BME280;55457;52.002;5.464;2022-07-04T12:06:47;101829.44;;;25.22;46.94
55187;BME280;55457;52.002;5.464;2022-07-04T12:09:13;101822.00;;;25.18;47.15
55187;BME280;55457;52.002;5.464;2022-07-04T12:12:01;101827.72;;;25.16;47.08
55187;BME280;55457;52.002;5.464;2022-07-04T12:14:27;101826.38;;;25.19;46.78
55187;BME280;55457;52.002;5.464;2022-07-04T12:17:15;101823.38;;;25.20;46.87
55187;BME280;55457;52.002;5.464;2022-07-04T12:20:16;101820.25;;;25.29;46.73
55187;BME280;55457;52.002;5.464;2022-07-04T12:22:58;101814.53;;;25.30;46.54
55187;BME280;55457;52.002;5.464;2022-07-04T12:25:26;101818.06;;;25.31;46.62
55187;BME280;55457;52.002;5.464;2022-07-04T12:30:30;101815.41;;;25.36;46.36
55187;BME280;55457;52.002;5.464;2022-07-04T12:33:06;101813.25;;;25.38;46.22
55187;BME280;55457;52.002;5.464;2022-07-04T12:35:43;101813.75;;;25.35;46.41
55187;BME280;55457;52.002;5.464;2022-07-04T12:38:12;101814.09;;;25.38;46.36
55187;BME280;55457;52.002;5.464;2022-07-04T12:40:50;101817.97;;;25.42;45.80
55187;BME280;55457;52.002;5.464;2022-07-04T12:43:16;101811.16;;;25.45;45.85
55187;BME280;55457;52.002;5.464;2022-07-04T12:45:47;101807.94;;;25.48;45.55
55187;BME280;55457;52.002;5.464;2022-07-04T12:48:22;101804.13;;;25.49;45.78
55187;BME280;55457;52.002;5.464;2022-07-04T12:50:47;101801.69;;;25.52;45.61
55187;BME280;55457;52.002;5.464;2022-07-04T12:53:13;101812.94;;;25.56;45.72
55187;BME280;55457;52.002;5.464;2022-07-04T12:55:44;101809.69;;;25.59;45.51
55187;BME280;55457;52.002;5.464;2022-07-04T12:58:09;101803.09;;;25.55;45.53
55187;BME280;55457;52.002;5.464;2022-07-04T13:00:36;101800.84;;;25.52;45.50
55187;BME280;55457;52.002;5.464;2022-07-04T13:03:02;101799.28;;;25.56;45.19
55187;BME280;55457;52.002;5.464;2022-07-04T13:05:27;101814.34;;;25.59;45.41
55187;BME280;55457;52.002;5.464;2022-07-04T13:07:52;101802.59;;;25.58;45.21
55187;BME280;55457;52.002;5.464;2022-07-04T13:10:18;101808.06;;;25.58;45.25
55187;BME280;55457;52.002;5.464;2022-07-04T13:12:43;101799.59;;;25.60;45.25
55187;BME280;55457;52.002;5.464;2022-07-04T13:15:09;101798.25;;;25.62;45.29
55187;BME280;55457;52.002;5.464;2022-07-04T13:17:37;101796.34;;;25.63;45.01
55187;BME280;55457;52.002;5.464;2022-07-04T13:20:02;101791.22;;;25.66;44.88